Oden, MI (49764)

3:07 PM EST on January 27, 2015 (GMT -0500)
Alanson Swing Bridge | Change Station
CLOSE
Current Station
Personal Weather Station
Location: Alanson, MI
Elevation: 597 ft
Nearby Weather Stations

Elev 597 ft 45.44 °N, 84.79 °W | Updated 3 seconds ago

Clear
Clear
23.6 °F
Feels Like 24 °F
N
0.0
Wind Variable Wind from North
Gusts 1.6 mph

Today
High -- | Low -- °F
--% Chance of Precip.
Yesterday
High -- | Low -- °F
Precip. -- in
8:05 AM 5:38 PM
First Quarter, 57% visible
Pressure 30.21 in
Visibility 10.0 miles
Clouds Clear
Windchill 24 °F
Dew Point 6 °F
Humidity 47%
Rainfall 0.00 in
Snow Depth Not available.
UV 2 out of 12
Pollen .10 out of 12
Air Quality Not available.
Flu Activity Not available.
METAR KMGN 271954Z AUTO 00000KT 10SM CLR M05/M15 A3021 RMK AO2 T10531154

More Conditions Fewer Conditions

Pressure 30.21 in
Visibility 10.0 miles
Clouds Clear
Windchill 24 °F
Dew Point 6 °F
Humidity 47%
Rainfall 0.00 in
Snow Depth Not available.
UV 2 out of 12
Pollen .10 out of 12
Air Quality Not available.
Flu Activity Not available.
METAR KMGN 271954Z AUTO 00000KT 10SM CLR M05/M15 A3021 RMK AO2 T10531154

More Conditions Fewer Conditions

Nowcast | as of 3:00 PM EST on January 27, 2015

At 4 PM...clear. Temperature 18. Light winds. At 6 PM...clear. Temperature 14. Light winds. At 8 PM...clear. Temperature 11. Light winds. At 10 PM...mostly clear. Temperature 10 above. Light winds.

×

10-Day Weather Forecast

Almanac

Astronomy

Jan. 27, 2015 Rise Set
Actual Time
Civil Twilight
Nautical Twilight
Astronomical Twilight
Moon
Length of Visible Light
Length of Day
Tomorrow will be .
, % of the Moon is Illuminated

Today's Extremes

State Highs State Lows

Community

WunderPhotos

Upload Photos

1,790,874 photos uploaded!

WunderBlogs® & News

Nearby

Air Quality

  Air Quality AQ Index Pollutant
Not available.

Snow Depth

Station Depth Elevation

Earthquake Activity

City Distance Mag. Time & Date
Minimum magnitude displayed is 2.5.

Coastal Water Temperatures

Place Temperature

Nearby Weather Stations